Aérodrome :
LOGIN :

S'inscrire | Disclaimer

   EN    FR    IT 

 










Légende :    VFR   VFR Marginal   IFR   IFR Intensif   IFR Très Intensif
Visi : 
Plafond : 
>= 8 km
>= 3000ft
5 à 8 km
1000 à 3000 ft
1500m à 5 km
500 à 1000 ft
800 à 1500m
200 à 500 ft
< 800m
< 200 ft
Symboles :   Orages  Brouillard  Fortes neiges  Fortes précipitations  Vent > 20 kt
SIGMETs :   Divers  Orages  Givrage  Turbulence  Onde Orograph.  Cendres Volcan.







- Altitude de l'aérodrome : 461 ft
- Code IATA : WIE


ETOU - Wiesbaden Army

METARs EXPIRÉS :
  • 241358Z COR 25007G18KT 210V290 9999 SCT150 26/10 A3001 RMK SLPNO AO2A COR 1408
  • 241323Z 26007G18KT 9999 SCT150 25/10 A3001 RMK AO2A SLP158 FIRST

TAF TAF ETOU
Valide du 24 à 11h jusqu'au 25 à 17h UTC


241101Z 2411/2517 23010G15KT 9999 SCT040 QNH2997INS
BECMG 2415/2416 27009KT 9999 BKN050 QNH2995INS
BECMG 2511/2512 26015G20KT 8000 -SHRA BKN040 QNH2992INS TX26/2415Z TN11/2501Z
Pas de NOTAMs connus pour ce terrain.



MET'MAP, la Météo Aéronautique d'un coup d'oeil ! - Copyright ORBIFLY Décembre 2007 - Disclaimer

ORBIFLY MET'MAP TEAM :

Programmation & Développement : Alexandra Zaïnal
Conception & Développement : Baudouin d'Aumeries
Co-Programmation & Développement : Marc-Olivier Méhu
Soutien technique & logistique : Manuel Goepfert

Contact : metmap@orbifly.com




SOURCES & CREDITS :

   NOAA